createdAt,value
2018-12-17T00:00:07.668Z,6.00
2018-12-17T00:01:08.812Z,6.00
2018-12-17T00:02:09.908Z,6.00
2018-12-17T00:03:10.924Z,6.00
2018-12-17T00:04:12.001Z,6.00
2018-12-17T00:05:13.076Z,5.80
2018-12-17T00:06:14.366Z,6.00
2018-12-17T00:07:15.355Z,6.00
2018-12-17T00:08:16.335Z,6.00
2018-12-17T00:09:17.319Z,6.00
2018-12-17T00:10:18.429Z,6.00
2018-12-17T00:11:19.622Z,6.00
2018-12-17T00:12:20.820Z,6.00
2018-12-17T00:13:21.798Z,6.00
2018-12-17T00:14:22.766Z,6.00
2018-12-17T00:15:23.761Z,6.10
2018-12-17T00:16:24.869Z,6.00
2018-12-17T00:17:25.852Z,6.00
2018-12-17T00:18:27.210Z,6.00
2018-12-17T00:19:28.216Z,6.00
2018-12-17T00:20:29.192Z,6.00
2018-12-17T00:21:30.160Z,6.00
2018-12-17T00:22:31.135Z,6.00
2018-12-17T00:23:32.121Z,6.00
2018-12-17T00:24:33.235Z,6.00
2018-12-17T00:25:34.305Z,5.90
2018-12-17T00:26:35.267Z,5.90
2018-12-17T00:27:36.243Z,5.90
2018-12-17T00:28:37.231Z,5.90
2018-12-17T00:29:38.207Z,5.80
2018-12-17T00:30:39.196Z,5.80
2018-12-17T00:31:40.169Z,5.80
2018-12-17T00:32:41.151Z,5.80
2018-12-17T00:33:42.138Z,5.80
2018-12-17T00:34:43.108Z,5.70
2018-12-17T00:35:44.095Z,5.70
2018-12-17T00:36:45.094Z,5.60
2018-12-17T00:37:46.070Z,5.60
2018-12-17T00:38:47.065Z,5.60
2018-12-17T00:39:48.039Z,5.70
2018-12-17T00:40:49.020Z,5.60
2018-12-17T00:41:56.767Z,5.60
2018-12-17T00:42:57.739Z,5.60
2018-12-17T00:43:58.737Z,5.60
2018-12-17T00:44:59.881Z,5.60
2018-12-17T00:46:00.860Z,5.60
2018-12-17T00:47:01.825Z,5.60
2018-12-17T00:48:02.916Z,5.60
2018-12-17T00:49:03.940Z,5.60
2018-12-17T00:50:05.127Z,5.60
2018-12-17T00:51:06.103Z,5.60
2018-12-17T00:52:07.079Z,5.60
2018-12-17T00:53:08.063Z,5.50
2018-12-17T00:54:09.042Z,5.50
2018-12-17T00:55:10.011Z,5.50
2018-12-17T00:56:11.090Z,5.50
2018-12-17T00:57:12.072Z,5.50
2018-12-17T00:58:15.242Z,5.50
2018-12-17T00:59:16.057Z,5.50
2018-12-17T01:00:17.056Z,5.50
2018-12-17T01:01:18.036Z,5.50
2018-12-17T01:02:19.318Z,5.50
2018-12-17T01:03:20.284Z,5.50
2018-12-17T01:04:21.377Z,5.50
2018-12-17T01:05:22.551Z,5.40
2018-12-17T01:06:23.648Z,5.40
2018-12-17T01:07:26.659Z,5.40
2018-12-17T01:08:28.883Z,5.40
2018-12-17T01:09:29.868Z,5.40
2018-12-17T01:10:31.085Z,5.40
2018-12-17T01:11:32.196Z,5.40
2018-12-17T01:12:33.178Z,5.40
2018-12-17T01:13:34.159Z,5.40
2018-12-17T01:14:35.171Z,5.40
2018-12-17T01:15:36.160Z,5.40
2018-12-17T01:16:37.231Z,5.40
2018-12-17T01:17:38.199Z,5.40
2018-12-17T01:18:39.391Z,5.40
2018-12-17T01:19:40.382Z,5.40
2018-12-17T01:20:41.350Z,5.40
2018-12-17T01:21:42.541Z,5.40
2018-12-17T01:22:43.560Z,5.40
2018-12-17T01:23:44.657Z,5.40
2018-12-17T01:24:45.617Z,5.40
2018-12-17T01:25:46.592Z,5.30
2018-12-17T01:26:47.569Z,5.40
2018-12-17T01:27:48.533Z,5.40
2018-12-17T01:28:49.541Z,5.30
2018-12-17T01:29:50.648Z,5.30
2018-12-17T01:30:51.627Z,5.30
2018-12-17T01:31:52.606Z,5.30
2018-12-17T01:32:53.605Z,5.30
2018-12-17T01:33:54.948Z,5.30
2018-12-17T01:34:55.944Z,5.20
2018-12-17T01:35:57.127Z,5.20
2018-12-17T01:36:58.116Z,5.20
2018-12-17T01:37:59.392Z,5.20
2018-12-17T01:39:00.444Z,5.20
2018-12-17T01:40:01.528Z,5.20
2018-12-17T01:41:02.712Z,5.20
2018-12-17T01:42:03.704Z,5.30
2018-12-17T01:43:04.714Z,5.20
2018-12-17T01:44:05.832Z,5.30
2018-12-17T01:45:06.816Z,5.20
2018-12-17T01:46:07.814Z,5.20
2018-12-17T01:47:08.796Z,5.30
2018-12-17T01:48:09.869Z,5.30
2018-12-17T01:49:10.868Z,5.20
2018-12-17T01:50:11.952Z,5.20
2018-12-17T01:51:13.045Z,5.20
2018-12-17T01:52:14.013Z,5.20
2018-12-17T01:53:15.002Z,5.30
2018-12-17T01:54:15.971Z,5.20
2018-12-17T01:55:17.507Z,5.20
2018-12-17T01:56:18.506Z,5.20
2018-12-17T01:57:19.581Z,5.20
2018-12-17T01:58:20.563Z,5.10
2018-12-17T01:59:21.768Z,5.20
2018-12-17T02:00:22.856Z,5.20
2018-12-17T02:01:23.950Z,5.10
2018-12-17T02:03:59.344Z,5.20
2018-12-17T02:05:00.424Z,5.10
2018-12-17T02:06:01.639Z,5.10
2018-12-17T02:07:02.817Z,4.90
2018-12-17T02:08:03.941Z,5.00
2018-12-17T02:09:05.426Z,5.00
2018-12-17T02:10:06.731Z,4.90
2018-12-17T02:11:07.832Z,4.90
2018-12-17T02:12:08.819Z,4.90
2018-12-17T02:13:09.802Z,5.00
2018-12-17T02:14:10.783Z,4.90
2018-12-17T02:15:11.876Z,5.00
2018-12-17T02:16:12.871Z,5.00
2018-12-17T02:17:13.943Z,4.90
2018-12-17T02:18:14.923Z,4.90
2018-12-17T02:19:15.901Z,4.90
2018-12-17T02:20:16.976Z,5.00
2018-12-17T02:21:18.064Z,5.00
2018-12-17T02:22:19.038Z,5.00
2018-12-17T02:23:20.125Z,4.90
2018-12-17T02:24:21.095Z,5.00
2018-12-17T02:25:22.171Z,5.00
2018-12-17T02:26:23.248Z,5.00
2018-12-17T02:27:24.232Z,5.00
2018-12-17T02:28:25.208Z,5.00
2018-12-17T02:29:26.314Z,5.00
2018-12-17T02:30:27.297Z,5.00
2018-12-17T02:31:28.299Z,4.90
2018-12-17T02:32:29.544Z,4.90
2018-12-17T02:33:30.524Z,4.90
2018-12-17T02:34:31.607Z,4.90
2018-12-17T02:35:32.601Z,4.90
2018-12-17T02:36:33.592Z,4.90
2018-12-17T02:37:34.566Z,4.90
2018-12-17T02:38:35.677Z,4.90
2018-12-17T02:39:36.707Z,4.90
2018-12-17T02:40:37.996Z,4.90
2018-12-17T02:41:39.057Z,4.90
2018-12-17T02:42:40.020Z,4.90
2018-12-17T02:43:40.999Z,4.90
2018-12-17T02:44:41.963Z,4.90
2018-12-17T02:45:49.961Z,4.90
2018-12-17T02:46:51.183Z,4.90
2018-12-17T02:47:52.169Z,4.90
2018-12-17T02:48:53.156Z,4.90
2018-12-17T02:49:54.235Z,4.90
2018-12-17T02:50:55.231Z,4.90
2018-12-17T02:51:56.329Z,4.90
2018-12-17T02:52:57.293Z,4.90
2018-12-17T02:53:58.393Z,4.90
2018-12-17T02:54:59.495Z,4.90
2018-12-17T02:56:00.564Z,4.90
2018-12-17T02:57:01.652Z,4.90
2018-12-17T02:58:02.844Z,4.90
2018-12-17T02:59:04.042Z,4.90
2018-12-17T03:00:06.668Z,4.90
2018-12-17T03:01:07.651Z,4.90
2018-12-17T03:02:08.765Z,4.90
2018-12-17T03:03:09.737Z,4.90
2018-12-17T03:04:10.725Z,4.90
2018-12-17T03:05:11.933Z,4.90
2018-12-17T03:06:12.910Z,4.90
2018-12-17T03:07:14.107Z,4.90
2018-12-17T03:08:15.083Z,5.00
2018-12-17T03:09:16.100Z,4.90
2018-12-17T03:10:17.203Z,4.90
2018-12-17T03:11:18.212Z,5.00
2018-12-17T03:12:19.205Z,4.80
2018-12-17T03:13:20.200Z,5.00
2018-12-17T03:14:21.190Z,5.00
2018-12-17T03:15:22.380Z,5.00
2018-12-17T03:16:23.352Z,5.00
2018-12-17T03:17:24.431Z,5.00
2018-12-17T03:18:25.519Z,5.00
2018-12-17T03:19:26.497Z,5.00
2018-12-17T03:20:27.569Z,5.00
2018-12-17T03:21:28.553Z,5.00
2018-12-17T03:22:29.514Z,5.00
2018-12-17T03:23:30.491Z,5.00
2018-12-17T03:24:31.471Z,5.10
2018-12-17T03:25:39.827Z,5.00
2018-12-17T03:26:40.813Z,5.00
2018-12-17T03:27:41.995Z,5.00
2018-12-17T03:28:43.077Z,5.00
2018-12-17T03:29:44.072Z,5.00
2018-12-17T03:30:45.585Z,5.00
2018-12-17T03:31:46.888Z,5.00
2018-12-17T03:32:47.863Z,5.00
2018-12-17T03:33:48.992Z,5.00
2018-12-17T03:34:49.997Z,5.10
2018-12-17T03:35:51.097Z,5.00
2018-12-17T03:36:52.067Z,5.00
2018-12-17T03:37:53.032Z,5.00
2018-12-17T03:38:54.003Z,5.00
2018-12-17T03:39:54.988Z,5.00
2018-12-17T03:40:55.963Z,5.00
2018-12-17T03:41:56.974Z,4.90
2018-12-17T03:42:58.067Z,5.00
2018-12-17T03:43:59.033Z,5.00
2018-12-17T03:45:00.008Z,5.00
2018-12-17T03:46:00.996Z,5.00
2018-12-17T03:47:01.989Z,5.00
2018-12-17T03:48:03.159Z,5.00
2018-12-17T03:49:04.349Z,5.00
2018-12-17T03:50:05.534Z,5.00
2018-12-17T03:51:06.685Z,5.00
2018-12-17T03:52:07.696Z,5.00
2018-12-17T03:53:08.659Z,5.10
2018-12-17T03:54:09.627Z,5.00
2018-12-17T03:55:10.619Z,5.10
2018-12-17T03:56:11.696Z,5.10
2018-12-17T03:57:12.659Z,5.10
2018-12-17T03:58:13.672Z,5.10
2018-12-17T03:59:21.591Z,5.20
2018-12-17T04:00:22.573Z,5.10
2018-12-17T04:01:23.745Z,5.20
2018-12-17T04:02:24.716Z,5.20
2018-12-17T04:03:25.687Z,5.20
2018-12-17T04:04:34.181Z,5.10
2018-12-17T04:05:35.248Z,5.20
2018-12-17T04:06:36.217Z,5.20
2018-12-17T04:07:37.191Z,5.20
2018-12-17T04:08:38.187Z,5.20
2018-12-17T04:09:39.169Z,5.20
2018-12-17T04:10:40.415Z,5.20
2018-12-17T04:11:41.379Z,5.20
2018-12-17T04:12:42.564Z,5.10
2018-12-17T04:13:43.535Z,5.10
2018-12-17T04:14:44.521Z,5.10
2018-12-17T04:15:45.620Z,5.10
2018-12-17T04:16:46.584Z,5.20
2018-12-17T04:17:54.564Z,5.20
2018-12-17T04:18:55.652Z,5.20
2018-12-17T04:19:56.668Z,5.10
2018-12-17T04:20:57.654Z,5.10
2018-12-17T04:21:58.632Z,5.10
2018-12-17T04:22:59.600Z,5.10
2018-12-17T04:24:00.614Z,5.10
2018-12-17T04:25:01.842Z,5.10
2018-12-17T04:26:02.955Z,5.10
2018-12-17T04:27:04.133Z,5.10
2018-12-17T04:28:07.124Z,5.10
2018-12-17T04:29:08.097Z,5.10
2018-12-17T04:30:09.199Z,5.10
2018-12-17T04:31:10.379Z,5.10
2018-12-17T04:32:11.467Z,5.10
2018-12-17T04:33:12.452Z,5.00
2018-12-17T04:34:13.423Z,5.00
2018-12-17T04:35:14.408Z,5.00
2018-12-17T04:36:15.390Z,5.00
2018-12-17T04:37:16.360Z,5.00
2018-12-17T04:38:17.333Z,5.00
2018-12-17T04:39:18.325Z,5.00
2018-12-17T04:40:19.350Z,5.00
2018-12-17T04:41:20.382Z,5.00
2018-12-17T04:42:21.364Z,5.00
2018-12-17T04:43:22.480Z,5.00
2018-12-17T04:44:23.472Z,5.00
2018-12-17T04:45:24.464Z,5.00
2018-12-17T04:46:25.473Z,5.00
2018-12-17T04:47:26.469Z,5.00
2018-12-17T04:48:27.451Z,5.00
2018-12-17T04:49:28.463Z,4.90
2018-12-17T04:50:29.529Z,4.90
2018-12-17T04:51:30.730Z,4.90
2018-12-17T04:52:31.772Z,4.80
2018-12-17T04:53:40.101Z,4.80
2018-12-17T04:54:41.584Z,4.90
2018-12-17T04:55:42.660Z,4.90
2018-12-17T04:56:44.516Z,4.90
2018-12-17T04:57:46.020Z,4.80
2018-12-17T04:58:46.983Z,4.80
2018-12-17T04:59:47.951Z,4.80
2018-12-17T05:00:49.056Z,4.80
2018-12-17T05:01:50.035Z,4.80
2018-12-17T05:02:51.124Z,4.80
2018-12-17T05:03:52.116Z,4.80
2018-12-17T05:04:53.225Z,4.60
2018-12-17T05:05:54.200Z,4.70
2018-12-17T05:06:55.183Z,4.70
2018-12-17T05:07:56.407Z,4.70
2018-12-17T05:08:57.371Z,4.70
2018-12-17T05:09:58.352Z,4.70
2018-12-17T05:10:59.463Z,4.80
2018-12-17T05:12:00.437Z,4.80
2018-12-17T05:13:01.405Z,4.80
2018-12-17T05:14:02.600Z,4.80
2018-12-17T05:15:04.711Z,4.80
2018-12-17T05:16:05.925Z,4.80
2018-12-17T05:17:07.133Z,4.80
2018-12-17T05:18:08.088Z,4.80
2018-12-17T05:19:09.065Z,4.80
2018-12-17T05:20:10.048Z,4.80
2018-12-17T05:21:11.340Z,4.70
2018-12-17T05:22:12.304Z,4.70
2018-12-17T05:23:13.305Z,4.70
2018-12-17T05:24:14.288Z,4.60
2018-12-17T05:25:15.368Z,4.60
2018-12-17T05:26:16.357Z,4.50
2018-12-17T05:27:17.350Z,4.40
2018-12-17T05:28:18.461Z,4.40
2018-12-17T05:29:21.696Z,4.30
2018-12-17T05:30:22.632Z,4.30
2018-12-17T05:31:23.639Z,4.20
2018-12-17T05:32:24.662Z,4.20
2018-12-17T05:33:25.856Z,4.20
2018-12-17T05:34:26.830Z,4.10
2018-12-17T05:35:28.194Z,4.00
2018-12-17T05:36:29.297Z,4.00
2018-12-17T05:37:30.442Z,4.00
2018-12-17T05:38:31.557Z,3.90
2018-12-17T05:39:32.713Z,3.90
2018-12-17T05:40:34.228Z,3.80
2018-12-17T05:41:35.238Z,3.80
2018-12-17T05:42:36.316Z,3.80
2018-12-17T05:43:38.520Z,3.90
2018-12-17T05:44:39.901Z,3.90
2018-12-17T05:45:40.985Z,3.90
2018-12-17T05:46:41.960Z,3.90
2018-12-17T05:47:43.308Z,3.90
2018-12-17T05:48:44.293Z,3.90
2018-12-17T05:49:45.383Z,3.90
2018-12-17T05:50:46.380Z,3.90
2018-12-17T05:51:47.360Z,3.90
2018-12-17T05:52:48.461Z,3.90
2018-12-17T05:53:49.461Z,3.90
2018-12-17T05:54:50.483Z,3.80
2018-12-17T05:55:51.462Z,3.90
2018-12-17T05:56:52.451Z,3.90
2018-12-17T05:57:53.438Z,3.90
2018-12-17T05:58:54.421Z,3.90
2018-12-17T05:59:55.393Z,3.90
2018-12-17T06:00:56.606Z,4.00
2018-12-17T06:01:57.588Z,3.80
2018-12-17T06:02:58.572Z,3.80
2018-12-17T06:03:59.579Z,3.80
2018-12-17T06:05:00.600Z,3.80
2018-12-17T06:06:01.588Z,3.80
2018-12-17T06:07:02.777Z,3.90
2018-12-17T06:08:03.884Z,3.80
2018-12-17T06:09:06.070Z,3.90
2018-12-17T06:10:07.247Z,3.90
2018-12-17T06:11:08.331Z,4.00
2018-12-17T06:12:09.322Z,4.00
2018-12-17T06:13:10.297Z,4.00
2018-12-17T06:14:11.324Z,4.00
2018-12-17T06:15:12.403Z,4.00
2018-12-17T06:16:13.504Z,4.00
2018-12-17T06:17:14.491Z,4.00
2018-12-17T06:18:15.462Z,4.10
2018-12-17T06:19:17.012Z,4.10
2018-12-17T06:20:18.009Z,4.10
2018-12-17T06:21:19.100Z,4.20
2018-12-17T06:22:20.084Z,4.20
2018-12-17T06:23:21.060Z,4.20
2018-12-17T06:24:22.067Z,4.20
2018-12-17T06:25:23.133Z,4.20
2018-12-17T06:26:24.091Z,4.20
2018-12-17T06:27:25.209Z,4.20
2018-12-17T06:28:26.187Z,4.20
2018-12-17T06:29:27.170Z,4.20
2018-12-17T06:30:28.264Z,4.20
2018-12-17T06:31:29.293Z,4.20
2018-12-17T06:32:30.351Z,4.20
2018-12-17T06:33:31.378Z,4.20
2018-12-17T06:34:32.450Z,4.20
2018-12-17T06:35:33.456Z,4.20
2018-12-17T06:36:34.432Z,4.20
2018-12-17T06:37:35.399Z,4.10
2018-12-17T06:38:36.397Z,4.10
2018-12-17T06:39:37.403Z,4.10
2018-12-17T06:40:38.523Z,4.10
2018-12-17T06:41:39.527Z,4.10
2018-12-17T06:42:40.567Z,4.00
2018-12-17T06:43:41.549Z,4.10
2018-12-17T06:44:42.515Z,4.00
2018-12-17T06:45:43.609Z,4.00
2018-12-17T06:46:44.702Z,3.90
2018-12-17T06:47:45.688Z,3.80
2018-12-17T06:48:46.671Z,3.80
2018-12-17T06:49:47.653Z,3.80
2018-12-17T06:50:48.644Z,3.80
2018-12-17T06:51:50.219Z,3.80
2018-12-17T06:52:51.187Z,3.80
2018-12-17T06:53:52.168Z,3.70
2018-12-17T06:54:54.931Z,3.60
2018-12-17T06:55:56.196Z,3.60
2018-12-17T06:56:57.187Z,3.60
2018-12-17T06:57:58.367Z,3.60
2018-12-17T06:58:59.381Z,3.50
2018-12-17T07:00:00.532Z,3.60
2018-12-17T07:01:01.536Z,3.60
2018-12-17T07:02:02.974Z,3.60
2018-12-17T07:03:04.081Z,3.60
2018-12-17T07:04:05.167Z,3.70
2018-12-17T07:05:06.373Z,3.70
2018-12-17T07:06:07.580Z,3.70
2018-12-17T07:07:08.598Z,3.70
2018-12-17T07:08:09.648Z,3.70
2018-12-17T07:09:10.663Z,3.80
2018-12-17T07:10:11.642Z,3.70
2018-12-17T07:11:12.630Z,3.60
2018-12-17T07:12:13.621Z,3.60
2018-12-17T07:13:14.596Z,3.50
2018-12-17T07:14:15.579Z,3.50
2018-12-17T07:15:16.723Z,3.50
2018-12-17T07:16:17.850Z,3.50
2018-12-17T07:17:18.816Z,3.50
2018-12-17T07:18:20.252Z,3.40
2018-12-17T07:19:21.219Z,3.40
2018-12-17T07:20:22.215Z,3.40
2018-12-17T07:21:23.247Z,3.40
2018-12-17T07:22:24.335Z,3.40
2018-12-17T07:23:25.305Z,3.40
2018-12-17T07:24:26.299Z,3.40
2018-12-17T07:25:27.279Z,3.40
2018-12-17T07:26:28.851Z,3.40
2018-12-17T07:27:30.136Z,3.40
2018-12-17T07:28:31.095Z,3.40
2018-12-17T07:29:32.174Z,3.40
2018-12-17T07:30:33.280Z,3.40
2018-12-17T07:31:34.278Z,3.40
2018-12-17T07:32:35.364Z,3.50
2018-12-17T07:33:36.332Z,3.50
2018-12-17T07:34:37.516Z,3.50
2018-12-17T07:35:38.503Z,3.60
2018-12-17T07:36:39.483Z,3.50
2018-12-17T07:37:40.470Z,3.50
2018-12-17T07:38:41.451Z,3.50
2018-12-17T07:39:42.528Z,3.50
2018-12-17T07:40:43.510Z,3.50
2018-12-17T07:41:44.600Z,3.50
2018-12-17T07:42:45.824Z,3.60
2018-12-17T07:43:46.915Z,3.50
2018-12-17T07:44:47.982Z,3.50
2018-12-17T07:45:49.126Z,3.60
2018-12-17T07:46:50.146Z,3.60
2018-12-17T07:47:51.132Z,3.60
2018-12-17T07:48:52.112Z,3.60
2018-12-17T07:49:53.129Z,3.60
2018-12-17T07:50:54.123Z,3.60
2018-12-17T07:51:55.122Z,3.60
2018-12-17T07:52:56.156Z,3.50
2018-12-17T07:53:57.123Z,3.60
2018-12-17T07:54:58.236Z,3.60
2018-12-17T07:55:59.227Z,3.60
2018-12-17T07:57:00.705Z,3.50
2018-12-17T07:58:01.692Z,3.50
2018-12-17T07:59:03.035Z,3.60
2018-12-17T08:00:06.882Z,3.60
2018-12-17T08:01:07.861Z,3.60
2018-12-17T08:02:08.924Z,3.60
2018-12-17T08:03:10.911Z,3.60
2018-12-17T08:04:11.959Z,3.60
2018-12-17T08:05:13.034Z,3.60
2018-12-17T08:06:14.003Z,3.60
2018-12-17T08:07:15.165Z,3.70
2018-12-17T08:08:16.138Z,3.70
2018-12-17T08:09:17.126Z,3.80
2018-12-17T08:10:18.106Z,3.80
2018-12-17T08:11:25.991Z,3.80
2018-12-17T08:12:27.116Z,3.80
2018-12-17T08:13:28.217Z,3.70
2018-12-17T08:14:29.315Z,3.80
2018-12-17T08:15:30.321Z,3.80
2018-12-17T08:16:32.230Z,3.80
2018-12-17T08:17:33.230Z,3.80
2018-12-17T08:18:34.264Z,3.80
2018-12-17T08:19:35.295Z,3.90
2018-12-17T08:20:36.764Z,3.90
2018-12-17T08:21:37.759Z,3.90
2018-12-17T08:22:39.516Z,4.00
2018-12-17T08:23:41.940Z,4.00
2018-12-17T08:24:43.381Z,4.00
2018-12-17T08:25:44.599Z,4.00
2018-12-17T08:26:45.726Z,4.10
2018-12-17T08:27:46.710Z,4.10
2018-12-17T08:28:47.736Z,4.10
2018-12-17T08:29:48.740Z,4.10
2018-12-17T08:30:49.744Z,4.20
2018-12-17T08:31:50.723Z,4.20
2018-12-17T08:32:51.928Z,4.20
2018-12-17T08:33:52.956Z,4.10
2018-12-17T08:35:00.791Z,4.10
2018-12-17T08:36:01.903Z,4.20
2018-12-17T08:37:02.997Z,4.20
2018-12-17T08:38:04.080Z,4.20
2018-12-17T08:39:05.695Z,4.20
2018-12-17T08:40:06.890Z,4.20
2018-12-17T08:41:07.858Z,4.20
2018-12-17T08:42:08.838Z,4.20
2018-12-17T08:43:09.838Z,4.20
2018-12-17T08:44:10.912Z,4.20
2018-12-17T08:45:11.896Z,4.30
2018-12-17T08:46:12.989Z,4.30
2018-12-17T08:47:13.971Z,4.30
2018-12-17T08:48:15.104Z,4.30
2018-12-17T08:49:16.080Z,4.20
2018-12-17T08:50:17.158Z,4.20
2018-12-17T08:51:18.247Z,4.30
2018-12-17T08:52:19.217Z,4.30
2018-12-17T08:53:20.195Z,4.30
2018-12-17T08:54:21.176Z,4.30
2018-12-17T08:55:22.148Z,4.30
2018-12-17T08:56:23.159Z,4.30
2018-12-17T08:57:24.126Z,4.20
2018-12-17T08:58:25.219Z,4.30
2018-12-17T08:59:26.293Z,4.30
2018-12-17T09:00:27.999Z,4.30
2018-12-17T09:01:29.190Z,4.30
2018-12-17T09:02:30.184Z,4.30
2018-12-17T09:03:31.183Z,4.30
2018-12-17T09:04:32.160Z,4.30
2018-12-17T09:05:33.127Z,4.20
2018-12-17T09:06:34.208Z,4.20
2018-12-17T09:07:36.219Z,4.20
2018-12-17T09:08:37.250Z,4.20
2018-12-17T09:09:38.404Z,4.20
2018-12-17T09:10:39.484Z,4.20
2018-12-17T09:11:40.550Z,4.30
2018-12-17T09:12:41.586Z,4.30
2018-12-17T09:13:42.792Z,4.30
2018-12-17T09:14:43.919Z,4.40
2018-12-17T09:15:44.911Z,4.40
2018-12-17T09:16:46.002Z,4.50
2018-12-17T09:17:47.235Z,4.50
2018-12-17T09:18:48.317Z,4.60
2018-12-17T09:19:49.564Z,4.60
2018-12-17T09:20:50.540Z,4.70
2018-12-17T09:21:51.519Z,4.70
2018-12-17T09:22:52.520Z,4.80
2018-12-17T09:23:53.563Z,4.80
2018-12-17T09:24:54.558Z,4.80
2018-12-17T09:25:55.952Z,4.90
2018-12-17T09:26:56.991Z,4.90
2018-12-17T09:27:57.967Z,4.90
2018-12-17T09:28:59.141Z,4.90
2018-12-17T09:30:00.352Z,4.90
2018-12-17T09:31:01.472Z,5.00
2018-12-17T09:32:02.776Z,5.00
2018-12-17T09:33:03.875Z,5.00
2018-12-17T09:34:04.953Z,5.00
2018-12-17T09:35:06.248Z,4.90
2018-12-17T09:36:07.314Z,4.90
2018-12-17T09:37:08.381Z,4.90
2018-12-17T09:38:09.363Z,4.90
2018-12-17T09:39:10.354Z,4.80
2018-12-17T09:40:11.448Z,4.90
2018-12-17T09:41:12.562Z,4.90
2018-12-17T09:42:13.553Z,4.90
2018-12-17T09:43:14.708Z,4.90
2018-12-17T09:44:15.680Z,4.90
2018-12-17T09:45:16.702Z,4.90
2018-12-17T09:46:17.688Z,4.90
2018-12-17T09:47:18.943Z,5.00
2018-12-17T09:48:19.916Z,5.00
2018-12-17T09:49:21.112Z,5.00
2018-12-17T09:50:22.180Z,5.10
2018-12-17T09:51:23.319Z,5.20
2018-12-17T09:52:24.354Z,5.10
2018-12-17T09:53:25.441Z,5.30
2018-12-17T09:54:26.638Z,5.30
2018-12-17T09:55:27.610Z,5.30
2018-12-17T09:56:28.680Z,5.40
2018-12-17T09:57:29.643Z,5.40
2018-12-17T09:58:30.688Z,5.40
2018-12-17T09:59:31.791Z,5.40
2018-12-17T10:00:32.947Z,5.40
2018-12-17T10:01:33.924Z,5.40
2018-12-17T10:02:35.353Z,5.40
2018-12-17T10:03:36.406Z,5.50
2018-12-17T10:04:37.393Z,5.50
2018-12-17T10:05:38.399Z,5.60
2018-12-17T10:06:39.396Z,5.60
2018-12-17T10:07:40.627Z,5.60
2018-12-17T10:08:41.613Z,5.60
2018-12-17T10:09:42.741Z,5.60
2018-12-17T10:10:43.731Z,5.70
2018-12-17T10:11:44.779Z,5.70
2018-12-17T10:12:45.758Z,5.70
2018-12-17T10:13:46.745Z,5.80
2018-12-17T10:14:47.832Z,5.80
2018-12-17T10:15:48.906Z,5.80
2018-12-17T10:16:49.992Z,5.90
2018-12-17T10:17:51.067Z,5.90
2018-12-17T10:18:52.057Z,5.90
2018-12-17T10:19:53.039Z,5.90
2018-12-17T10:20:54.016Z,6.00
2018-12-17T10:21:55.146Z,6.00
2018-12-17T10:22:56.220Z,6.00
2018-12-17T10:23:57.322Z,6.00
2018-12-17T10:24:58.300Z,6.00
2018-12-17T10:25:59.585Z,5.90
2018-12-17T10:27:00.636Z,6.00
2018-12-17T10:28:01.597Z,6.00
2018-12-17T10:29:02.848Z,6.00
2018-12-17T10:30:04.747Z,5.90
2018-12-17T10:31:05.716Z,5.90
2018-12-17T10:32:06.801Z,6.00
2018-12-17T10:33:07.779Z,6.00
2018-12-17T10:34:08.888Z,6.10
2018-12-17T10:35:09.928Z,6.20
2018-12-17T10:36:10.912Z,6.10
2018-12-17T10:37:11.902Z,6.20
2018-12-17T10:38:12.872Z,6.20
2018-12-17T10:39:15.058Z,6.30
2018-12-17T10:40:16.279Z,6.30
2018-12-17T10:41:17.449Z,6.30
2018-12-17T10:42:25.321Z,6.40
2018-12-17T10:43:26.652Z,6.40
2018-12-17T10:44:28.161Z,6.40
2018-12-17T10:45:29.323Z,6.50
2018-12-17T10:46:30.397Z,6.60
2018-12-17T10:47:31.364Z,6.60
2018-12-17T10:48:32.345Z,6.70
2018-12-17T10:49:33.531Z,6.80
2018-12-17T10:50:34.499Z,6.80
2018-12-17T10:51:35.559Z,6.80
2018-12-17T10:52:36.528Z,6.90
2018-12-17T10:53:37.619Z,6.90
2018-12-17T10:54:38.700Z,6.90
2018-12-17T10:55:39.783Z,7.00
2018-12-17T10:56:41.088Z,7.00
2018-12-17T10:57:42.082Z,7.00
2018-12-17T10:58:43.049Z,7.00
2018-12-17T10:59:44.247Z,7.00
2018-12-17T11:00:51.595Z,7.00
2018-12-17T11:02:03.827Z,7.10
2018-12-17T11:03:06.917Z,7.10
2018-12-17T11:04:09.460Z,6.90
2018-12-17T11:05:10.860Z,7.00
2018-12-17T11:06:13.565Z,7.00
2018-12-17T11:07:15.032Z,6.90
2018-12-17T11:08:15.999Z,6.90
2018-12-17T11:09:16.999Z,6.90
2018-12-17T11:10:18.033Z,6.80
2018-12-17T11:11:19.033Z,6.90
2018-12-17T11:12:20.044Z,6.90
2018-12-17T11:13:21.137Z,6.90
2018-12-17T11:14:22.230Z,7.00
2018-12-17T11:15:23.308Z,7.00
2018-12-17T11:16:24.452Z,7.00
2018-12-17T11:17:25.443Z,7.00
2018-12-17T11:18:26.529Z,7.00
2018-12-17T11:19:27.589Z,7.10
2018-12-17T11:20:28.606Z,7.10
2018-12-17T11:21:29.680Z,7.10
2018-12-17T11:22:30.702Z,7.20
2018-12-17T11:23:31.695Z,7.10
2018-12-17T11:24:32.684Z,7.10
2018-12-17T11:25:33.814Z,7.20
2018-12-17T11:26:34.805Z,7.20
2018-12-17T11:27:36.924Z,7.10
2018-12-17T11:28:37.892Z,7.20
2018-12-17T11:29:38.961Z,7.20
2018-12-17T11:30:46.555Z,7.30
2018-12-17T11:31:44.070Z,7.30
2018-12-17T11:32:45.099Z,7.40
2018-12-17T11:33:46.122Z,7.50
2018-12-17T11:34:47.101Z,7.50
2018-12-17T11:35:48.124Z,7.50
2018-12-17T11:36:49.107Z,7.60
2018-12-17T11:37:50.096Z,7.60
2018-12-17T11:38:51.086Z,7.70
2018-12-17T11:39:52.112Z,7.70
2018-12-17T11:40:53.128Z,7.70
2018-12-17T11:41:54.219Z,7.80
2018-12-17T11:42:55.191Z,7.70
2018-12-17T11:43:56.163Z,7.80
2018-12-17T11:44:57.194Z,7.70
2018-12-17T11:45:58.202Z,7.70
2018-12-17T11:46:59.184Z,7.70
2018-12-17T11:48:00.144Z,7.80
2018-12-17T11:49:01.384Z,7.80
2018-12-17T11:50:03.673Z,7.70
2018-12-17T11:51:04.627Z,7.80
2018-12-17T11:52:05.841Z,7.90
2018-12-17T11:53:06.988Z,7.90
2018-12-17T11:54:07.962Z,7.90
2018-12-17T11:55:16.058Z,7.90
2018-12-17T11:56:17.140Z,8.00
2018-12-17T11:57:27.029Z,8.10
2018-12-17T11:58:27.996Z,8.10
2018-12-17T11:59:28.970Z,8.10
2018-12-17T12:00:30.070Z,8.20
2018-12-17T12:01:31.058Z,8.20
2018-12-17T12:02:32.036Z,8.30
2018-12-17T12:03:34.216Z,8.30
2018-12-17T12:04:35.307Z,8.30
2018-12-17T12:07:04.059Z,8.40
2018-12-17T12:08:05.148Z,8.50
2018-12-17T12:09:06.127Z,8.30
2018-12-17T12:10:07.357Z,8.50
2018-12-17T12:11:08.455Z,8.50
2018-12-17T12:12:09.427Z,8.60
2018-12-17T12:13:10.454Z,8.60
2018-12-17T12:14:11.448Z,8.60
2018-12-17T12:15:12.497Z,8.60
2018-12-17T12:16:13.578Z,8.70
2018-12-17T12:17:14.611Z,8.70
2018-12-17T12:18:15.632Z,8.70
2018-12-17T12:19:16.760Z,8.70
2018-12-17T12:20:17.741Z,8.70
2018-12-17T12:21:18.744Z,8.70
2018-12-17T12:22:19.795Z,8.60
2018-12-17T12:23:20.768Z,8.60
2018-12-17T12:24:21.759Z,8.60
2018-12-17T12:25:22.862Z,8.60
2018-12-17T12:26:23.932Z,8.60
2018-12-17T12:27:25.125Z,8.60
2018-12-17T12:28:26.103Z,8.60
2018-12-17T12:29:27.127Z,8.60
2018-12-17T12:30:28.247Z,8.60
2018-12-17T12:31:29.240Z,8.60
2018-12-17T12:32:30.619Z,8.70
2018-12-17T12:33:31.678Z,8.70
2018-12-17T12:34:32.692Z,8.70
2018-12-17T12:35:33.892Z,8.70
2018-12-17T12:36:34.876Z,8.70
2018-12-17T12:37:35.952Z,8.70
2018-12-17T12:38:36.916Z,8.80
2018-12-17T12:39:37.964Z,8.80
2018-12-17T12:40:38.932Z,8.80
2018-12-17T12:41:40.442Z,8.90
2018-12-17T12:42:41.544Z,8.90
2018-12-17T12:43:42.533Z,8.90
2018-12-17T12:44:43.495Z,8.90
2018-12-17T12:45:44.467Z,8.90
2018-12-17T12:46:45.455Z,9.00
2018-12-17T12:47:46.431Z,9.00
2018-12-17T12:48:47.419Z,9.10
2018-12-17T12:49:48.495Z,9.00
2018-12-17T12:50:49.524Z,9.10
2018-12-17T12:51:50.544Z,9.10
2018-12-17T12:52:51.526Z,9.10
2018-12-17T12:53:52.603Z,9.10
2018-12-17T12:54:53.652Z,9.10
2018-12-17T12:55:54.640Z,9.10
2018-12-17T12:56:55.692Z,9.10
2018-12-17T12:58:03.412Z,9.10
2018-12-17T12:58:59.768Z,9.10
2018-12-17T13:00:08.120Z,9.10
2018-12-17T13:01:09.124Z,9.00
2018-12-17T13:02:10.095Z,9.10
2018-12-17T13:03:11.111Z,9.10
2018-12-17T13:04:12.259Z,9.10
2018-12-17T13:05:13.338Z,9.10
2018-12-17T13:06:14.331Z,9.10
2018-12-17T13:07:15.336Z,9.10
2018-12-17T13:08:16.403Z,9.10
2018-12-17T13:09:19.373Z,9.10
2018-12-17T13:10:20.459Z,9.20
2018-12-17T13:11:21.475Z,9.10
2018-12-17T13:12:22.559Z,9.10
2018-12-17T13:13:23.631Z,9.20
2018-12-17T13:14:31.450Z,9.10
2018-12-17T13:15:32.427Z,9.10
2018-12-17T13:16:33.408Z,9.10
2018-12-17T13:17:34.490Z,9.10
2018-12-17T13:18:35.623Z,9.00
2018-12-17T13:19:36.595Z,9.10
2018-12-17T13:20:37.634Z,9.00
2018-12-17T13:21:38.744Z,9.10
2018-12-17T13:22:39.729Z,9.00
2018-12-17T13:23:40.700Z,9.10
2018-12-17T13:24:41.670Z,9.10
2018-12-17T13:25:43.488Z,9.10
2018-12-17T13:26:44.672Z,9.10
2018-12-17T13:27:45.647Z,9.00
2018-12-17T13:28:46.618Z,9.10
2018-12-17T13:29:47.606Z,9.00
2018-12-17T13:30:48.732Z,9.00
2018-12-17T13:31:49.723Z,9.00
2018-12-17T13:32:50.862Z,9.00
2018-12-17T13:33:52.040Z,9.00
2018-12-17T13:34:53.031Z,8.90
2018-12-17T13:35:54.015Z,8.90
2018-12-17T13:36:55.050Z,8.90
2018-12-17T13:37:56.045Z,8.90